sensor_id;sensor_type;location;lat;lon;timestamp;temperature;humidity
21035;DHT22;10676;50.848;3.272;2023-05-02T00:00:30;11.90;99.90
21035;DHT22;10676;50.848;3.272;2023-05-02T00:02:56;11.90;99.90
21035;DHT22;10676;50.848;3.272;2023-05-02T00:05:23;11.90;99.90
21035;DHT22;10676;50.848;3.272;2023-05-02T00:07:50;12.00;99.90
21035;DHT22;10676;50.848;3.272;2023-05-02T00:10:16;12.00;99.90
21035;DHT22;10676;50.848;3.272;2023-05-02T00:12:42;12.00;99.90
21035;DHT22;10676;50.848;3.272;2023-05-02T00:15:08;12.00;99.90
21035;DHT22;10676;50.848;3.272;2023-05-02T00:17:35;12.10;99.90
21035;DHT22;10676;50.848;3.272;2023-05-02T00:20:01;12.10;99.90
21035;DHT22;10676;50.848;3.272;2023-05-02T00:22:29;12.00;99.90
21035;DHT22;10676;50.848;3.272;2023-05-02T00:24:56;12.10;99.90
21035;DHT22;10676;50.848;3.272;2023-05-02T00:27:22;12.10;99.90
21035;DHT22;10676;50.848;3.272;2023-05-02T00:29:48;12.10;99.90
21035;DHT22;10676;50.848;3.272;2023-05-02T00:32:13;12.10;99.90
21035;DHT22;10676;50.848;3.272;2023-05-02T00:34:39;12.10;99.90
21035;DHT22;10676;50.848;3.272;2023-05-02T00:37:05;12.10;99.90
21035;DHT22;10676;50.848;3.272;2023-05-02T00:39:33;12.10;99.90
21035;DHT22;10676;50.848;3.272;2023-05-02T00:42:00;12.10;99.90
21035;DHT22;10676;50.848;3.272;2023-05-02T00:44:26;12.10;99.90
21035;DHT22;10676;50.848;3.272;2023-05-02T00:46:53;12.10;99.90
21035;DHT22;10676;50.848;3.272;2023-05-02T00:49:19;12.10;99.90
21035;DHT22;10676;50.848;3.272;2023-05-02T00:51:45;12.10;99.90
21035;DHT22;10676;50.848;3.272;2023-05-02T00:54:12;12.10;99.90
21035;DHT22;10676;50.848;3.272;2023-05-02T00:56:38;12.20;99.90
21035;DHT22;10676;50.848;3.272;2023-05-02T00:59:04;12.10;99.90
21035;DHT22;10676;50.848;3.272;2023-05-02T01:04:29;12.10;99.90
21035;DHT22;10676;50.848;3.272;2023-05-02T01:14:51;12.20;99.90
21035;DHT22;10676;50.848;3.272;2023-05-02T01:17:19;12.20;99.90
21035;DHT22;10676;50.848;3.272;2023-05-02T01:19:57;12.20;99.90
21035;DHT22;10676;50.848;3.272;2023-05-02T01:22:25;12.20;99.90
21035;DHT22;10676;50.848;3.272;2023-05-02T01:30:30;12.30;99.90
21035;DHT22;10676;50.848;3.272;2023-05-02T01:32:58;12.30;99.90
21035;DHT22;10676;50.848;3.272;2023-05-02T01:35:26;12.30;99.90
21035;DHT22;10676;50.848;3.272;2023-05-02T01:37:54;12.30;99.90
21035;DHT22;10676;50.848;3.272;2023-05-02T01:40:22;12.30;99.90
21035;DHT22;10676;50.848;3.272;2023-05-02T01:42:51;12.30;99.90
21035;DHT22;10676;50.848;3.272;2023-05-02T01:45:18;12.30;99.90
21035;DHT22;10676;50.848;3.272;2023-05-02T01:47:45;12.30;99.90
21035;DHT22;10676;50.848;3.272;2023-05-02T01:50:13;12.30;99.90
21035;DHT22;10676;50.848;3.272;2023-05-02T01:52:41;12.30;99.90
21035;DHT22;10676;50.848;3.272;2023-05-02T01:55:11;12.30;99.90
21035;DHT22;10676;50.848;3.272;2023-05-02T01:57:39;12.30;99.90
21035;DHT22;10676;50.848;3.272;2023-05-02T02:00:06;12.30;99.90
21035;DHT22;10676;50.848;3.272;2023-05-02T02:02:34;12.30;99.90
21035;DHT22;10676;50.848;3.272;2023-05-02T02:05:02;12.30;99.90
21035;DHT22;10676;50.848;3.272;2023-05-02T02:07:29;12.30;99.90
21035;DHT22;10676;50.848;3.272;2023-05-02T02:09:55;12.30;99.90
21035;DHT22;10676;50.848;3.272;2023-05-02T02:12:27;12.30;99.90
21035;DHT22;10676;50.848;3.272;2023-05-02T02:15:02;12.40;99.90
21035;DHT22;10676;50.848;3.272;2023-05-02T02:17:38;12.30;99.90
21035;DHT22;10676;50.848;3.272;2023-05-02T02:20:07;12.30;99.90
21035;DHT22;10676;50.848;3.272;2023-05-02T02:22:36;12.30;99.90
21035;DHT22;10676;50.848;3.272;2023-05-02T02:25:05;12.40;99.90
21035;DHT22;10676;50.848;3.272;2023-05-02T02:27:32;12.40;99.90
21035;DHT22;10676;50.848;3.272;2023-05-02T02:29:58;12.40;99.90
21035;DHT22;10676;50.848;3.272;2023-05-02T02:32:23;12.40;99.90
21035;DHT22;10676;50.848;3.272;2023-05-02T02:34:50;12.30;99.90
21035;DHT22;10676;50.848;3.272;2023-05-02T02:37:22;12.30;99.90
21035;DHT22;10676;50.848;3.272;2023-05-02T02:45:56;12.10;99.90
21035;DHT22;10676;50.848;3.272;2023-05-02T02:54:28;12.00;99.90
21035;DHT22;10676;50.848;3.272;2023-05-02T02:57:19;12.00;99.90
21035;DHT22;10676;50.848;3.272;2023-05-02T02:59:56;11.90;99.90
21035;DHT22;10676;50.848;3.272;2023-05-02T03:02:27;11.90;99.90
21035;DHT22;10676;50.848;3.272;2023-05-02T03:04:54;11.80;99.90
21035;DHT22;10676;50.848;3.272;2023-05-02T03:07:23;11.80;99.90
21035;DHT22;10676;50.848;3.272;2023-05-02T03:09:51;11.70;99.90
21035;DHT22;10676;50.848;3.272;2023-05-02T03:12:17;11.70;99.90
21035;DHT22;10676;50.848;3.272;2023-05-02T03:14:43;11.70;99.90
21035;DHT22;10676;50.848;3.272;2023-05-02T03:17:09;11.70;99.90
21035;DHT22;10676;50.848;3.272;2023-05-02T03:19:35;11.70;99.90
21035;DHT22;10676;50.848;3.272;2023-05-02T03:22:02;11.70;99.90
21035;DHT22;10676;50.848;3.272;2023-05-02T03:24:29;11.70;99.90
21035;DHT22;10676;50.848;3.272;2023-05-02T03:26:55;11.70;99.90
21035;DHT22;10676;50.848;3.272;2023-05-02T03:29:21;11.60;99.90
21035;DHT22;10676;50.848;3.272;2023-05-02T03:31:47;11.60;99.90
21035;DHT22;10676;50.848;3.272;2023-05-02T03:34:13;11.60;99.90
21035;DHT22;10676;50.848;3.272;2023-05-02T03:36:39;11.60;99.90
21035;DHT22;10676;50.848;3.272;2023-05-02T03:39:05;11.60;99.90
21035;DHT22;10676;50.848;3.272;2023-05-02T03:41:31;11.50;99.90
21035;DHT22;10676;50.848;3.272;2023-05-02T03:43:57;11.40;99.90
21035;DHT22;10676;50.848;3.272;2023-05-02T03:46:24;11.20;99.90
21035;DHT22;10676;50.848;3.272;2023-05-02T03:48:49;11.10;99.90
21035;DHT22;10676;50.848;3.272;2023-05-02T03:51:15;11.00;99.90
21035;DHT22;10676;50.848;3.272;2023-05-02T03:53:41;10.80;99.90
21035;DHT22;10676;50.848;3.272;2023-05-02T03:56:08;10.70;99.90
21035;DHT22;10676;50.848;3.272;2023-05-02T03:58:34;10.60;99.90
21035;DHT22;10676;50.848;3.272;2023-05-02T04:01:03;10.50;99.90
21035;DHT22;10676;50.848;3.272;2023-05-02T04:03:28;10.40;99.90
21035;DHT22;10676;50.848;3.272;2023-05-02T04:05:54;10.30;99.90
21035;DHT22;10676;50.848;3.272;2023-05-02T04:08:20;10.20;99.90
21035;DHT22;10676;50.848;3.272;2023-05-02T04:10:46;10.10;99.90
21035;DHT22;10676;50.848;3.272;2023-05-02T04:13:18;10.00;99.90
21035;DHT22;10676;50.848;3.272;2023-05-02T04:15:44;10.10;99.90
21035;DHT22;10676;50.848;3.272;2023-05-02T04:18:11;10.10;99.90
21035;DHT22;10676;50.848;3.272;2023-05-02T04:20:36;10.10;99.90
21035;DHT22;10676;50.848;3.272;2023-05-02T04:23:02;10.30;99.90
21035;DHT22;10676;50.848;3.272;2023-05-02T04:25:28;10.50;99.90
21035;DHT22;10676;50.848;3.272;2023-05-02T04:27:53;10.60;99.90
21035;DHT22;10676;50.848;3.272;2023-05-02T04:30:19;10.80;99.90
21035;DHT22;10676;50.848;3.272;2023-05-02T04:32:45;10.90;99.90
21035;DHT22;10676;50.848;3.272;2023-05-02T04:35:11;11.00;99.90
21035;DHT22;10676;50.848;3.272;2023-05-02T04:37:37;11.20;99.90
21035;DHT22;10676;50.848;3.272;2023-05-02T04:40:03;11.20;99.90
21035;DHT22;10676;50.848;3.272;2023-05-02T04:42:33;11.30;99.90
21035;DHT22;10676;50.848;3.272;2023-05-02T04:44:58;11.30;99.90
21035;DHT22;10676;50.848;3.272;2023-05-02T04:47:27;11.40;99.90
21035;DHT22;10676;50.848;3.272;2023-05-02T04:49:54;11.50;99.90
21035;DHT22;10676;50.848;3.272;2023-05-02T04:52:21;11.60;99.90
21035;DHT22;10676;50.848;3.272;2023-05-02T04:54:51;11.80;99.90
21035;DHT22;10676;50.848;3.272;2023-05-02T04:57:17;11.90;99.90
21035;DHT22;10676;50.848;3.272;2023-05-02T04:59:43;12.10;99.90
21035;DHT22;10676;50.848;3.272;2023-05-02T05:02:10;12.20;99.90
21035;DHT22;10676;50.848;3.272;2023-05-02T05:04:37;12.30;99.90
21035;DHT22;10676;50.848;3.272;2023-05-02T05:07:03;12.30;99.90
21035;DHT22;10676;50.848;3.272;2023-05-02T05:09:30;12.30;99.90
21035;DHT22;10676;50.848;3.272;2023-05-02T05:11:56;12.30;99.90
21035;DHT22;10676;50.848;3.272;2023-05-02T05:14:21;12.30;99.90
21035;DHT22;10676;50.848;3.272;2023-05-02T05:16:48;12.30;99.90
21035;DHT22;10676;50.848;3.272;2023-05-02T05:19:14;12.30;99.90
21035;DHT22;10676;50.848;3.272;2023-05-02T05:21:39;12.30;99.90
21035;DHT22;10676;50.848;3.272;2023-05-02T05:24:05;12.30;99.90
21035;DHT22;10676;50.848;3.272;2023-05-02T05:26:32;12.30;99.90
21035;DHT22;10676;50.848;3.272;2023-05-02T05:28:57;12.40;99.90
21035;DHT22;10676;50.848;3.272;2023-05-02T05:31:23;12.40;99.90
21035;DHT22;10676;50.848;3.272;2023-05-02T05:33:49;12.50;99.90
21035;DHT22;10676;50.848;3.272;2023-05-02T05:36:15;12.50;99.90
21035;DHT22;10676;50.848;3.272;2023-05-02T05:38:41;12.50;99.90
21035;DHT22;10676;50.848;3.272;2023-05-02T05:41:07;12.60;99.90
21035;DHT22;10676;50.848;3.272;2023-05-02T05:43:33;12.60;99.90
21035;DHT22;10676;50.848;3.272;2023-05-02T05:45:59;12.70;99.90
21035;DHT22;10676;50.848;3.272;2023-05-02T05:48:25;12.70;99.90
21035;DHT22;10676;50.848;3.272;2023-05-02T05:50:50;12.80;99.90
21035;DHT22;10676;50.848;3.272;2023-05-02T05:53:17;12.80;99.90
21035;DHT22;10676;50.848;3.272;2023-05-02T05:55:44;12.80;99.90
21035;DHT22;10676;50.848;3.272;2023-05-02T05:58:09;12.80;99.90
21035;DHT22;10676;50.848;3.272;2023-05-02T06:00:36;12.80;99.90
21035;DHT22;10676;50.848;3.272;2023-05-02T06:03:03;12.80;99.90
21035;DHT22;10676;50.848;3.272;2023-05-02T06:05:29;12.80;99.90
21035;DHT22;10676;50.848;3.272;2023-05-02T06:07:56;12.80;99.90
21035;DHT22;10676;50.848;3.272;2023-05-02T06:10:22;12.90;99.90
21035;DHT22;10676;50.848;3.272;2023-05-02T06:12:48;12.90;99.90
21035;DHT22;10676;50.848;3.272;2023-05-02T06:15:13;13.00;99.90
21035;DHT22;10676;50.848;3.272;2023-05-02T06:17:39;13.10;99.90
21035;DHT22;10676;50.848;3.272;2023-05-02T06:20:05;13.20;99.90
21035;DHT22;10676;50.848;3.272;2023-05-02T06:22:31;13.20;99.90
21035;DHT22;10676;50.848;3.272;2023-05-02T06:24:57;13.30;99.90
21035;DHT22;10676;50.848;3.272;2023-05-02T06:27:23;13.30;99.90
21035;DHT22;10676;50.848;3.272;2023-05-02T06:29:52;13.30;99.90
21035;DHT22;10676;50.848;3.272;2023-05-02T06:32:18;13.40;99.90
21035;DHT22;10676;50.848;3.272;2023-05-02T06:34:44;13.50;99.90
21035;DHT22;10676;50.848;3.272;2023-05-02T06:37:10;13.60;99.90
21035;DHT22;10676;50.848;3.272;2023-05-02T06:39:36;13.80;99.90
21035;DHT22;10676;50.848;3.272;2023-05-02T06:42:02;14.00;99.90
21035;DHT22;10676;50.848;3.272;2023-05-02T06:44:28;14.10;99.90
21035;DHT22;10676;50.848;3.272;2023-05-02T06:46:54;14.20;99.90
21035;DHT22;10676;50.848;3.272;2023-05-02T06:49:22;14.20;99.90
21035;DHT22;10676;50.848;3.272;2023-05-02T06:51:48;14.30;99.90
21035;DHT22;10676;50.848;3.272;2023-05-02T06:54:14;14.30;99.90
21035;DHT22;10676;50.848;3.272;2023-05-02T06:56:41;14.20;99.90
21035;DHT22;10676;50.848;3.272;2023-05-02T06:59:07;14.20;99.90
21035;DHT22;10676;50.848;3.272;2023-05-02T07:01:32;14.10;99.90
21035;DHT22;10676;50.848;3.272;2023-05-02T07:04:00;14.00;99.90
21035;DHT22;10676;50.848;3.272;2023-05-02T07:06:26;13.90;99.90
21035;DHT22;10676;50.848;3.272;2023-05-02T07:08:52;13.90;99.90
21035;DHT22;10676;50.848;3.272;2023-05-02T07:11:18;14.00;99.90
21035;DHT22;10676;50.848;3.272;2023-05-02T07:13:43;14.10;99.90
21035;DHT22;10676;50.848;3.272;2023-05-02T07:16:10;14.30;99.90
21035;DHT22;10676;50.848;3.272;2023-05-02T07:18:36;14.40;99.90
21035;DHT22;10676;50.848;3.272;2023-05-02T07:21:01;14.60;99.90
21035;DHT22;10676;50.848;3.272;2023-05-02T07:23:28;14.70;99.90
21035;DHT22;10676;50.848;3.272;2023-05-02T07:25:53;14.90;99.90
21035;DHT22;10676;50.848;3.272;2023-05-02T07:28:19;15.00;99.90
21035;DHT22;10676;50.848;3.272;2023-05-02T07:30:45;15.20;99.90
21035;DHT22;10676;50.848;3.272;2023-05-02T07:33:13;15.40;99.90
21035;DHT22;10676;50.848;3.272;2023-05-02T07:35:39;15.50;99.90
21035;DHT22;10676;50.848;3.272;2023-05-02T07:38:05;15.70;99.90
21035;DHT22;10676;50.848;3.272;2023-05-02T07:40:31;15.80;99.90
21035;DHT22;10676;50.848;3.272;2023-05-02T07:42:57;15.90;99.90
21035;DHT22;10676;50.848;3.272;2023-05-02T07:45:25;15.80;99.90
21035;DHT22;10676;50.848;3.272;2023-05-02T07:47:51;15.90;99.90
21035;DHT22;10676;50.848;3.272;2023-05-02T07:50:16;15.90;99.90
21035;DHT22;10676;50.848;3.272;2023-05-02T07:52:43;16.00;99.90
21035;DHT22;10676;50.848;3.272;2023-05-02T07:55:09;16.10;99.90
21035;DHT22;10676;50.848;3.272;2023-05-02T07:57:35;16.20;99.90
21035;DHT22;10676;50.848;3.272;2023-05-02T08:00:01;16.40;99.90
21035;DHT22;10676;50.848;3.272;2023-05-02T08:02:26;16.70;99.90
21035;DHT22;10676;50.848;3.272;2023-05-02T08:04:53;17.40;99.90
21035;DHT22;10676;50.848;3.272;2023-05-02T08:07:19;18.30;99.90
21035;DHT22;10676;50.848;3.272;2023-05-02T08:09:45;18.80;99.90
21035;DHT22;10676;50.848;3.272;2023-05-02T08:12:11;19.30;99.90
21035;DHT22;10676;50.848;3.272;2023-05-02T08:14:37;20.50;99.90
21035;DHT22;10676;50.848;3.272;2023-05-02T08:17:02;22.30;99.90
21035;DHT22;10676;50.848;3.272;2023-05-02T08:19:28;24.10;99.90
21035;DHT22;10676;50.848;3.272;2023-05-02T08:21:58;25.50;99.90
21035;DHT22;10676;50.848;3.272;2023-05-02T08:24:24;26.80;96.20
21035;DHT22;10676;50.848;3.272;2023-05-02T08:26:49;27.70;90.10
21035;DHT22;10676;50.848;3.272;2023-05-02T08:29:15;28.20;84.30
21035;DHT22;10676;50.848;3.272;2023-05-02T08:31:41;28.70;80.00
21035;DHT22;10676;50.848;3.272;2023-05-02T08:34:07;29.20;76.10
21035;DHT22;10676;50.848;3.272;2023-05-02T08:36:32;29.40;73.10
21035;DHT22;10676;50.848;3.272;2023-05-02T08:38:58;29.70;70.80
21035;DHT22;10676;50.848;3.272;2023-05-02T08:41:24;29.90;68.50
21035;DHT22;10676;50.848;3.272;2023-05-02T08:43:53;29.90;65.40
21035;DHT22;10676;50.848;3.272;2023-05-02T08:46:21;29.10;65.10
21035;DHT22;10676;50.848;3.272;2023-05-02T08:48:48;27.90;67.90
21035;DHT22;10676;50.848;3.272;2023-05-02T08:51:16;27.50;67.80
21035;DHT22;10676;50.848;3.272;2023-05-02T08:53:43;27.60;68.20
21035;DHT22;10676;50.848;3.272;2023-05-02T08:56:10;27.80;67.00
21035;DHT22;10676;50.848;3.272;2023-05-02T08:58:41;27.80;65.60
21035;DHT22;10676;50.848;3.272;2023-05-02T09:01:16;27.50;66.00
21035;DHT22;10676;50.848;3.272;2023-05-02T09:03:45;27.10;66.60
21035;DHT22;10676;50.848;3.272;2023-05-02T09:06:16;26.80;67.30
21035;DHT22;10676;50.848;3.272;2023-05-02T09:08:43;27.10;66.00
21035;DHT22;10676;50.848;3.272;2023-05-02T09:11:10;27.40;64.40
21035;DHT22;10676;50.848;3.272;2023-05-02T09:13:41;27.60;63.90
21035;DHT22;10676;50.848;3.272;2023-05-02T09:18:45;28.60;61.80
21035;DHT22;10676;50.848;3.272;2023-05-02T09:21:14;29.10;61.40
21035;DHT22;10676;50.848;3.272;2023-05-02T09:26:12;29.50;59.10
21035;DHT22;10676;50.848;3.272;2023-05-02T09:31:10;29.80;58.60
21035;DHT22;10676;50.848;3.272;2023-05-02T09:33:37;30.10;58.50
21035;DHT22;10676;50.848;3.272;2023-05-02T09:36:05;29.80;57.50
21035;DHT22;10676;50.848;3.272;2023-05-02T09:38:32;29.40;58.00
21035;DHT22;10676;50.848;3.272;2023-05-02T09:40:58;29.20;58.70
21035;DHT22;10676;50.848;3.272;2023-05-02T09:43:25;29.20;58.10
21035;DHT22;10676;50.848;3.272;2023-05-02T09:46:04;29.40;58.30
21035;DHT22;10676;50.848;3.272;2023-05-02T09:48:33;29.70;58.40
21035;DHT22;10676;50.848;3.272;2023-05-02T09:51:19;29.90;56.30
21035;DHT22;10676;50.848;3.272;2023-05-02T09:53:46;30.10;55.90
21035;DHT22;10676;50.848;3.272;2023-05-02T09:56:11;30.40;55.80
21035;DHT22;10676;50.848;3.272;2023-05-02T09:58:37;30.80;54.50
21035;DHT22;10676;50.848;3.272;2023-05-02T10:01:03;31.10;54.10
21035;DHT22;10676;50.848;3.272;2023-05-02T10:03:29;31.00;53.80
21035;DHT22;10676;50.848;3.272;2023-05-02T10:05:57;30.60;54.20
21035;DHT22;10676;50.848;3.272;2023-05-02T10:08:27;30.10;55.00
21035;DHT22;10676;50.848;3.272;2023-05-02T10:10:54;29.50;55.40
21035;DHT22;10676;50.848;3.272;2023-05-02T10:13:25;29.10;55.80
21035;DHT22;10676;50.848;3.272;2023-05-02T10:16:11;28.80;55.80
21035;DHT22;10676;50.848;3.272;2023-05-02T10:19:02;28.40;56.90
21035;DHT22;10676;50.848;3.272;2023-05-02T10:21:29;28.30;57.30
21035;DHT22;10676;50.848;3.272;2023-05-02T10:24:00;28.10;57.20
21035;DHT22;10676;50.848;3.272;2023-05-02T10:26:28;28.40;56.90
21035;DHT22;10676;50.848;3.272;2023-05-02T10:28:55;28.40;56.70
21035;DHT22;10676;50.848;3.272;2023-05-02T10:31:21;28.40;56.60
21035;DHT22;10676;50.848;3.272;2023-05-02T10:33:50;28.70;56.50
21035;DHT22;10676;50.848;3.272;2023-05-02T10:36:21;29.20;55.00
21035;DHT22;10676;50.848;3.272;2023-05-02T10:38:48;29.80;54.50
21035;DHT22;10676;50.848;3.272;2023-05-02T10:41:22;30.40;53.50
21035;DHT22;10676;50.848;3.272;2023-05-02T10:43:49;30.60;52.10
21035;DHT22;10676;50.848;3.272;2023-05-02T10:46:34;30.60;51.30
21035;DHT22;10676;50.848;3.272;2023-05-02T10:49:05;30.60;52.40
21035;DHT22;10676;50.848;3.272;2023-05-02T10:51:32;30.10;52.40
21035;DHT22;10676;50.848;3.272;2023-05-02T10:57:00;29.20;54.70
21035;DHT22;10676;50.848;3.272;2023-05-02T10:59:40;29.40;53.60
21035;DHT22;10676;50.848;3.272;2023-05-02T11:05:03;28.80;54.90
21035;DHT22;10676;50.848;3.272;2023-05-02T11:07:31;28.70;54.80
21035;DHT22;10676;50.848;3.272;2023-05-02T11:12:55;29.50;53.70
21035;DHT22;10676;50.848;3.272;2023-05-02T11:18:07;28.90;54.50
21035;DHT22;10676;50.848;3.272;2023-05-02T11:20:35;29.00;54.20
21035;DHT22;10676;50.848;3.272;2023-05-02T11:25:44;29.50;53.30
21035;DHT22;10676;50.848;3.272;2023-05-02T11:31:02;29.80;51.50
21035;DHT22;10676;50.848;3.272;2023-05-02T11:33:28;29.60;51.20
21035;DHT22;10676;50.848;3.272;2023-05-02T11:35:54;29.60;50.50
21035;DHT22;10676;50.848;3.272;2023-05-02T11:38:24;29.70;50.50
21035;DHT22;10676;50.848;3.272;2023-05-02T11:40:55;29.80;51.20
21035;DHT22;10676;50.848;3.272;2023-05-02T11:43:21;29.80;50.50
21035;DHT22;10676;50.848;3.272;2023-05-02T11:45:47;29.80;50.90
21035;DHT22;10676;50.848;3.272;2023-05-02T11:48:16;29.50;50.70
21035;DHT22;10676;50.848;3.272;2023-05-02T11:50:46;29.40;49.90
21035;DHT22;10676;50.848;3.272;2023-05-02T11:53:14;29.40;51.00
21035;DHT22;10676;50.848;3.272;2023-05-02T11:55:53;29.60;50.30
21035;DHT22;10676;50.848;3.272;2023-05-02T11:58:21;29.80;50.50
21035;DHT22;10676;50.848;3.272;2023-05-02T12:00:47;29.90;50.10
21035;DHT22;10676;50.848;3.272;2023-05-02T12:03:25;30.10;50.00
21035;DHT22;10676;50.848;3.272;2023-05-02T12:05:51;29.90;49.60
21035;DHT22;10676;50.848;3.272;2023-05-02T12:10:49;28.90;50.60
21035;DHT22;10676;50.848;3.272;2023-05-02T12:13:16;28.50;50.90
21035;DHT22;10676;50.848;3.272;2023-05-02T12:15:42;28.40;51.10
21035;DHT22;10676;50.848;3.272;2023-05-02T12:18:08;28.40;51.30
21035;DHT22;10676;50.848;3.272;2023-05-02T12:20:35;28.60;50.90
21035;DHT22;10676;50.848;3.272;2023-05-02T12:23:02;28.80;50.60
21035;DHT22;10676;50.848;3.272;2023-05-02T12:25:28;29.00;50.30
21035;DHT22;10676;50.848;3.272;2023-05-02T12:28:01;29.20;50.40
21035;DHT22;10676;50.848;3.272;2023-05-02T12:30:28;29.50;49.80
21035;DHT22;10676;50.848;3.272;2023-05-02T12:32:58;29.70;50.00
21035;DHT22;10676;50.848;3.272;2023-05-02T12:35:24;29.80;49.90
21035;DHT22;10676;50.848;3.272;2023-05-02T12:37:50;29.80;49.90
21035;DHT22;10676;50.848;3.272;2023-05-02T12:40:16;29.80;50.30
21035;DHT22;10676;50.848;3.272;2023-05-02T12:42:42;29.90;49.60
21035;DHT22;10676;50.848;3.272;2023-05-02T12:45:17;29.80;49.30
21035;DHT22;10676;50.848;3.272;2023-05-02T12:47:46;29.50;49.50
21035;DHT22;10676;50.848;3.272;2023-05-02T12:50:12;29.20;50.30
21035;DHT22;10676;50.848;3.272;2023-05-02T12:52:51;29.00;50.40
21035;DHT22;10676;50.848;3.272;2023-05-02T12:55:25;28.40;51.10
21035;DHT22;10676;50.848;3.272;2023-05-02T12:58:03;27.80;52.20
21035;DHT22;10676;50.848;3.272;2023-05-02T13:00:35;27.10;53.10
21035;DHT22;10676;50.848;3.272;2023-05-02T13:03:01;26.70;53.50
21035;DHT22;10676;50.848;3.272;2023-05-02T13:05:27;26.70;53.50
21035;DHT22;10676;50.848;3.272;2023-05-02T13:07:52;26.80;53.50
21035;DHT22;10676;50.848;3.272;2023-05-02T13:10:21;26.90;53.30
21035;DHT22;10676;50.848;3.272;2023-05-02T13:12:47;26.90;53.20
21035;DHT22;10676;50.848;3.272;2023-05-02T13:15:13;26.70;53.00
21035;DHT22;10676;50.848;3.272;2023-05-02T13:17:39;26.20;53.60
21035;DHT22;10676;50.848;3.272;2023-05-02T13:20:06;25.80;55.00
21035;DHT22;10676;50.848;3.272;2023-05-02T13:22:33;25.60;55.40
21035;DHT22;10676;50.848;3.272;2023-05-02T13:24:59;25.70;55.40
21035;DHT22;10676;50.848;3.272;2023-05-02T13:27:25;25.80;55.60
21035;DHT22;10676;50.848;3.272;2023-05-02T13:29:51;25.90;55.00
21035;DHT22;10676;50.848;3.272;2023-05-02T13:32:17;26.00;54.80
21035;DHT22;10676;50.848;3.272;2023-05-02T13:34:43;25.80;54.70
21035;DHT22;10676;50.848;3.272;2023-05-02T13:37:09;25.50;55.50
21035;DHT22;10676;50.848;3.272;2023-05-02T13:39:35;25.50;55.90
21035;DHT22;10676;50.848;3.272;2023-05-02T13:42:01;25.60;55.50
21035;DHT22;10676;50.848;3.272;2023-05-02T13:44:30;25.80;55.70
21035;DHT22;10676;50.848;3.272;2023-05-02T13:46:56;26.10;55.70
21035;DHT22;10676;50.848;3.272;2023-05-02T13:49:21;26.30;54.40
21035;DHT22;10676;50.848;3.272;2023-05-02T13:51:47;26.30;54.20
21035;DHT22;10676;50.848;3.272;2023-05-02T13:54:13;26.30;54.30
21035;DHT22;10676;50.848;3.272;2023-05-02T13:56:43;26.30;53.90
21035;DHT22;10676;50.848;3.272;2023-05-02T13:59:08;26.30;54.80
21035;DHT22;10676;50.848;3.272;2023-05-02T14:01:34;26.40;55.40
21035;DHT22;10676;50.848;3.272;2023-05-02T14:04:00;26.50;55.10
21035;DHT22;10676;50.848;3.272;2023-05-02T14:06:31;26.60;53.80
21035;DHT22;10676;50.848;3.272;2023-05-02T14:08:57;26.50;53.90
21035;DHT22;10676;50.848;3.272;2023-05-02T14:11:23;26.20;54.00
21035;DHT22;10676;50.848;3.272;2023-05-02T14:13:48;25.80;55.20
21035;DHT22;10676;50.848;3.272;2023-05-02T14:16:14;25.50;55.80
21035;DHT22;10676;50.848;3.272;2023-05-02T14:18:40;25.30;56.20
21035;DHT22;10676;50.848;3.272;2023-05-02T14:21:06;25.20;56.30
21035;DHT22;10676;50.848;3.272;2023-05-02T14:23:32;25.30;56.30
21035;DHT22;10676;50.848;3.272;2023-05-02T14:25:58;25.40;56.40
21035;DHT22;10676;50.848;3.272;2023-05-02T14:28:24;25.40;55.40
21035;DHT22;10676;50.848;3.272;2023-05-02T14:30:51;25.10;56.00
21035;DHT22;10676;50.848;3.272;2023-05-02T14:33:17;24.70;57.30
21035;DHT22;10676;50.848;3.272;2023-05-02T14:35:42;24.40;58.00
21035;DHT22;10676;50.848;3.272;2023-05-02T14:38:08;24.30;57.90
21035;DHT22;10676;50.848;3.272;2023-05-02T14:40:34;24.20;58.30
21035;DHT22;10676;50.848;3.272;2023-05-02T14:43:00;24.10;58.30
21035;DHT22;10676;50.848;3.272;2023-05-02T14:45:26;24.10;58.80
21035;DHT22;10676;50.848;3.272;2023-05-02T14:47:51;24.10;58.00
21035;DHT22;10676;50.848;3.272;2023-05-02T14:50:17;24.10;58.30
21035;DHT22;10676;50.848;3.272;2023-05-02T14:52:43;24.10;58.40
21035;DHT22;10676;50.848;3.272;2023-05-02T14:55:11;24.00;58.40
21035;DHT22;10676;50.848;3.272;2023-05-02T14:57:37;24.00;58.60
21035;DHT22;10676;50.848;3.272;2023-05-02T15:00:04;24.10;58.20
21035;DHT22;10676;50.848;3.272;2023-05-02T15:02:32;24.10;57.50
21035;DHT22;10676;50.848;3.272;2023-05-02T15:04:58;24.10;57.70
21035;DHT22;10676;50.848;3.272;2023-05-02T15:07:24;24.10;57.90
21035;DHT22;10676;50.848;3.272;2023-05-02T15:09:50;24.10;57.90
21035;DHT22;10676;50.848;3.272;2023-05-02T15:12:16;24.10;57.90
21035;DHT22;10676;50.848;3.272;2023-05-02T15:14:41;24.00;58.00
21035;DHT22;10676;50.848;3.272;2023-05-02T15:17:07;23.90;58.00
21035;DHT22;10676;50.848;3.272;2023-05-02T15:19:33;23.80;58.40
21035;DHT22;10676;50.848;3.272;2023-05-02T15:21:58;23.80;58.50
21035;DHT22;10676;50.848;3.272;2023-05-02T15:24:24;23.70;58.70
21035;DHT22;10676;50.848;3.272;2023-05-02T15:26:50;23.70;58.20
21035;DHT22;10676;50.848;3.272;2023-05-02T15:29:16;23.60;58.80
21035;DHT22;10676;50.848;3.272;2023-05-02T15:31:42;23.60;58.80
21035;DHT22;10676;50.848;3.272;2023-05-02T15:34:08;23.50;58.10
21035;DHT22;10676;50.848;3.272;2023-05-02T15:36:34;23.40;58.70
21035;DHT22;10676;50.848;3.272;2023-05-02T15:39:06;23.30;59.30
21035;DHT22;10676;50.848;3.272;2023-05-02T15:41:32;23.20;59.40
21035;DHT22;10676;50.848;3.272;2023-05-02T15:43:58;23.20;58.80
21035;DHT22;10676;50.848;3.272;2023-05-02T15:46:24;23.00;59.60
21035;DHT22;10676;50.848;3.272;2023-05-02T15:48:50;22.90;60.30
21035;DHT22;10676;50.848;3.272;2023-05-02T15:51:16;22.70;60.90
21035;DHT22;10676;50.848;3.272;2023-05-02T15:53:43;22.60;61.40
21035;DHT22;10676;50.848;3.272;2023-05-02T15:56:10;22.50;61.90
21035;DHT22;10676;50.848;3.272;2023-05-02T15:58:36;22.50;61.90
21035;DHT22;10676;50.848;3.272;2023-05-02T16:01:04;22.40;62.30
21035;DHT22;10676;50.848;3.272;2023-05-02T16:03:30;22.20;62.40
21035;DHT22;10676;50.848;3.272;2023-05-02T16:05:57;22.20;61.80
21035;DHT22;10676;50.848;3.272;2023-05-02T16:08:24;22.10;62.00
21035;DHT22;10676;50.848;3.272;2023-05-02T16:10:50;22.00;62.10
21035;DHT22;10676;50.848;3.272;2023-05-02T16:13:16;21.90;62.60
21035;DHT22;10676;50.848;3.272;2023-05-02T16:15:42;21.80;62.70
21035;DHT22;10676;50.848;3.272;2023-05-02T16:18:07;21.70;63.10
21035;DHT22;10676;50.848;3.272;2023-05-02T16:20:33;21.60;63.00
21035;DHT22;10676;50.848;3.272;2023-05-02T16:23:01;21.60;63.20
21035;DHT22;10676;50.848;3.272;2023-05-02T16:25:27;21.50;63.00